METAR Data
IDs: Format: Raw Decoded Include TAF

Data at: 1828 UTC 23 Jan 2019

KABY 231753Z 17019G23KT 10SM SCT060 24/12 A3009 RMK AO2 PK WND 17027/1728 SLP187 T02390122 10239 20111 58039